createdAt,value
2019-05-06T00:01:36.534Z,4.97
2019-05-06T00:04:06.191Z,4.60
2019-05-06T00:06:35.821Z,4.43
2019-05-06T00:09:11.521Z,4.07
2019-05-06T00:11:41.105Z,4.17
2019-05-06T00:14:10.896Z,3.80
2019-05-06T00:16:40.560Z,4.30
2019-05-06T00:19:10.512Z,4.23
2019-05-06T00:21:40.203Z,4.20
2019-05-06T00:24:10.137Z,4.13
2019-05-06T00:26:49.927Z,4.27
2019-05-06T00:29:24.219Z,4.60
2019-05-06T00:31:54.298Z,4.30
2019-05-06T00:34:24.580Z,4.90
2019-05-06T00:36:54.978Z,4.40
2019-05-06T00:39:30.873Z,4.70
2019-05-06T00:42:06.172Z,4.20
2019-05-06T00:44:35.822Z,5.30
2019-05-06T00:47:05.493Z,5.20
2019-05-06T00:49:35.113Z,5.17
2019-05-06T00:52:04.760Z,4.20
2019-05-06T00:54:34.552Z,4.37
2019-05-06T00:57:04.279Z,5.17
2019-05-06T00:59:34.619Z,4.67
2019-05-06T01:02:04.757Z,4.70
2019-05-06T01:04:34.373Z,5.10
2019-05-06T01:07:04.142Z,4.77
2019-05-06T01:09:35.590Z,4.07
2019-05-06T01:12:06.089Z,5.30
2019-05-06T01:14:40.193Z,4.80
2019-05-06T01:17:09.890Z,4.90
2019-05-06T01:19:39.638Z,5.50
2019-05-06T01:22:09.481Z,4.90
2019-05-06T01:24:39.174Z,5.07
2019-05-06T01:27:08.798Z,5.63
2019-05-06T01:29:38.635Z,5.77
2019-05-06T01:32:08.302Z,5.10
2019-05-06T01:34:38.162Z,5.13
2019-05-06T01:37:07.894Z,4.10
2019-05-06T01:39:54.194Z,5.10
2019-05-06T01:42:37.759Z,4.53
2019-05-06T01:45:08.818Z,5.60
2019-05-06T01:47:39.126Z,4.67
2019-05-06T01:50:09.111Z,5.60
2019-05-06T01:52:38.722Z,5.27
2019-05-06T01:55:08.914Z,5.40
2019-05-06T01:57:40.414Z,5.50
2019-05-06T02:00:10.297Z,5.07
2019-05-06T02:02:39.966Z,5.33
2019-05-06T02:05:09.901Z,4.57
2019-05-06T02:07:39.485Z,5.47
2019-05-06T02:10:09.502Z,5.17
2019-05-06T02:12:39.246Z,4.03
2019-05-06T02:15:09.224Z,5.13
2019-05-06T02:17:38.789Z,4.70
2019-05-06T02:20:11.047Z,4.40
2019-05-06T02:22:47.568Z,5.10
2019-05-06T02:25:24.470Z,5.77
2019-05-06T02:27:56.924Z,5.53
2019-05-06T02:30:59.972Z,6.10
2019-05-06T02:33:39.359Z,5.20
2019-05-06T02:36:15.023Z,4.60
2019-05-06T02:38:50.558Z,5.27
2019-05-06T02:41:16.123Z,5.70
2019-05-06T02:43:45.755Z,4.90
2019-05-06T02:46:15.410Z,5.50
2019-05-06T02:48:55.326Z,4.53
2019-05-06T02:51:27.116Z,5.57
2019-05-06T02:54:47.927Z,4.53
2019-05-06T02:57:20.218Z,4.83
2019-05-06T02:59:50.075Z,5.20
2019-05-06T03:02:35.654Z,4.40
2019-05-06T03:04:53.396Z,5.10
2019-05-06T03:07:25.502Z,6.60
2019-05-06T03:09:55.162Z,5.40
2019-05-06T03:12:24.728Z,5.20
2019-05-06T03:14:54.293Z,6.10
2019-05-06T03:17:24.194Z,5.43
2019-05-06T03:19:55.668Z,6.27
2019-05-06T03:22:43.503Z,5.33
2019-05-06T03:25:14.930Z,6.40
2019-05-06T03:27:46.933Z,5.47
2019-05-06T03:30:16.773Z,6.13
2019-05-06T03:33:18.679Z,6.40
2019-05-06T03:35:33.318Z,6.60
2019-05-06T03:37:49.325Z,6.20
2019-05-06T03:40:18.982Z,6.27
2019-05-06T03:42:48.841Z,4.93
2019-05-06T03:45:28.266Z,6.00
2019-05-06T03:48:05.945Z,5.67
2019-05-06T03:50:35.994Z,6.00
2019-05-06T03:53:06.714Z,6.40
2019-05-06T03:55:38.046Z,5.73
2019-05-06T03:58:09.178Z,6.33
2019-05-06T04:00:39.384Z,6.57
2019-05-06T04:03:09.402Z,5.60
2019-05-06T04:05:39.272Z,6.20
2019-05-06T04:08:09.079Z,5.23
2019-05-06T04:10:39.027Z,5.83
2019-05-06T04:13:13.300Z,5.10
2019-05-06T04:16:09.860Z,5.50
2019-05-06T04:18:43.749Z,5.87
2019-05-06T04:21:19.717Z,6.70
2019-05-06T04:24:15.289Z,6.40
2019-05-06T04:27:13.430Z,5.83
2019-05-06T04:29:42.972Z,5.30
2019-05-06T04:32:13.913Z,5.63
2019-05-06T04:34:48.766Z,6.00
2019-05-06T04:37:18.721Z,4.73
2019-05-06T04:39:49.131Z,5.63
2019-05-06T04:42:19.284Z,5.23
2019-05-06T04:44:49.253Z,5.37
2019-05-06T04:47:19.184Z,5.63
2019-05-06T04:49:49.052Z,5.63
2019-05-06T04:52:18.982Z,5.53
2019-05-06T04:54:48.689Z,5.43
2019-05-06T04:57:18.704Z,5.83
2019-05-06T04:59:48.626Z,6.60
2019-05-06T05:02:18.394Z,4.70
2019-05-06T05:04:48.324Z,6.50
2019-05-06T05:07:18.612Z,6.20
2019-05-06T05:09:48.590Z,5.60
2019-05-06T05:12:29.975Z,5.97
2019-05-06T05:15:15.582Z,6.33
2019-05-06T05:17:50.134Z,5.80
2019-05-06T05:20:19.693Z,5.37
2019-05-06T05:22:49.395Z,5.63
2019-05-06T05:25:22.115Z,5.97
2019-05-06T05:27:52.846Z,5.97
2019-05-06T05:30:22.561Z,6.07
2019-05-06T05:32:52.676Z,5.30
2019-05-06T05:35:22.770Z,5.23
2019-05-06T05:38:03.155Z,6.13
2019-05-06T05:40:33.121Z,6.17
2019-05-06T05:43:11.708Z,5.07
2019-05-06T05:45:42.439Z,4.90
2019-05-06T05:48:37.139Z,6.17
2019-05-06T05:51:07.993Z,5.13
2019-05-06T05:53:39.512Z,4.30
2019-05-06T05:56:09.214Z,4.70
2019-05-06T05:58:42.320Z,5.20
2019-05-06T06:01:12.735Z,4.43
2019-05-06T06:03:43.062Z,5.30
2019-05-06T06:06:13.007Z,5.90
2019-05-06T06:08:43.065Z,5.67
2019-05-06T06:11:19.682Z,4.50
2019-05-06T06:13:49.400Z,5.80
2019-05-06T06:16:37.100Z,5.90
2019-05-06T06:19:22.124Z,5.97
2019-05-06T06:22:05.083Z,5.20
2019-05-06T06:24:36.168Z,4.63
2019-05-06T06:27:05.917Z,4.77
2019-05-06T06:29:35.589Z,5.30
2019-05-06T06:32:19.657Z,5.40
2019-05-06T06:35:08.302Z,4.07
2019-05-06T06:37:42.619Z,4.77
2019-05-06T06:40:26.603Z,4.37
2019-05-06T06:43:05.214Z,4.60
2019-05-06T06:45:54.060Z,5.13
2019-05-06T06:48:24.525Z,4.90
2019-05-06T06:50:54.563Z,4.50
2019-05-06T06:53:24.323Z,4.87
2019-05-06T06:56:14.061Z,4.93
2019-05-06T06:59:02.618Z,4.97
2019-05-06T07:01:38.484Z,4.70
2019-05-06T07:04:15.550Z,5.00
2019-05-06T07:06:53.003Z,3.90
2019-05-06T07:09:23.140Z,4.40
2019-05-06T07:11:56.463Z,4.70
2019-05-06T07:14:28.604Z,4.37
2019-05-06T07:16:58.347Z,4.03
2019-05-06T07:19:36.909Z,3.60
2019-05-06T07:22:07.137Z,4.43
2019-05-06T07:24:36.903Z,4.50
2019-05-06T07:27:14.716Z,4.50
2019-05-06T07:29:48.405Z,3.90
2019-05-06T07:32:16.309Z,4.73
2019-05-06T07:34:46.202Z,4.30
2019-05-06T07:37:17.646Z,4.00
2019-05-06T07:39:52.674Z,3.70
2019-05-06T07:42:27.434Z,3.03
2019-05-06T07:45:08.955Z,3.77
2019-05-06T07:47:46.816Z,3.67
2019-05-06T07:50:18.105Z,3.50
2019-05-06T07:53:13.287Z,2.77
2019-05-06T07:55:43.320Z,4.27
2019-05-06T07:58:13.759Z,3.20
2019-05-06T08:00:45.383Z,3.80
2019-05-06T08:03:16.386Z,3.77
2019-05-06T08:05:55.778Z,3.50
2019-05-06T08:08:17.869Z,3.47
2019-05-06T08:10:52.727Z,3.93
2019-05-06T08:13:25.278Z,3.17
2019-05-06T08:15:58.350Z,3.60
2019-05-06T08:18:28.114Z,3.47
2019-05-06T08:20:59.768Z,2.83
2019-05-06T08:23:46.483Z,2.67
2019-05-06T08:26:22.245Z,4.00
2019-05-06T08:28:53.720Z,2.93
2019-05-06T08:31:25.101Z,3.10
2019-05-06T08:33:57.105Z,2.90
2019-05-06T08:36:35.942Z,2.70
2019-05-06T08:39:07.301Z,4.43
2019-05-06T08:41:36.897Z,3.20
2019-05-06T08:44:06.652Z,3.30
2019-05-06T08:46:36.368Z,3.07
2019-05-06T08:49:06.986Z,3.40
2019-05-06T08:51:43.153Z,3.33
2019-05-06T08:54:19.155Z,3.33
2019-05-06T08:56:48.833Z,2.73
2019-05-06T08:59:18.505Z,2.83
2019-05-06T09:01:49.899Z,3.37
2019-05-06T09:04:19.554Z,2.97
2019-05-06T09:06:49.102Z,3.07
2019-05-06T09:09:19.365Z,2.87
2019-05-06T09:11:49.058Z,3.50
2019-05-06T09:14:18.830Z,4.63
2019-05-06T09:16:50.740Z,2.57
2019-05-06T09:19:19.978Z,3.43
2019-05-06T09:21:49.586Z,3.23
2019-05-06T09:24:19.769Z,2.93
2019-05-06T09:26:54.315Z,3.30
2019-05-06T09:29:39.142Z,3.20
2019-05-06T09:32:18.878Z,3.30
2019-05-06T09:34:55.502Z,3.60
2019-05-06T09:37:25.952Z,3.90
2019-05-06T09:39:55.659Z,3.20
2019-05-06T09:42:25.346Z,2.40
2019-05-06T09:44:55.091Z,2.57
2019-05-06T09:47:47.055Z,2.43
2019-05-06T09:50:19.875Z,2.10
2019-05-06T09:52:49.516Z,2.17
2019-05-06T09:55:32.601Z,2.30
2019-05-06T09:58:45.835Z,2.27
2019-05-06T10:01:22.367Z,3.50
2019-05-06T10:03:50.257Z,2.40
2019-05-06T10:06:22.167Z,2.70
2019-05-06T10:08:51.619Z,2.00
2019-05-06T10:11:22.286Z,2.43
2019-05-06T10:13:52.856Z,2.33
2019-05-06T10:16:22.781Z,1.27
2019-05-06T10:18:53.023Z,1.53
2019-05-06T10:21:23.023Z,1.80
2019-05-06T10:23:52.973Z,1.57
2019-05-06T10:26:23.475Z,1.43
2019-05-06T10:28:59.675Z,1.57
2019-05-06T10:31:34.370Z,1.10
2019-05-06T10:34:14.390Z,1.60
2019-05-06T10:37:12.571Z,1.40
2019-05-06T10:39:41.352Z,1.43
2019-05-06T10:42:14.210Z,1.53
2019-05-06T10:45:03.339Z,1.43
2019-05-06T10:47:33.272Z,1.40
2019-05-06T10:50:03.289Z,1.33
2019-05-06T10:52:52.143Z,1.60
2019-05-06T10:55:23.172Z,1.70
2019-05-06T10:57:53.273Z,1.60
2019-05-06T11:00:23.266Z,1.60
2019-05-06T11:03:14.857Z,2.00
2019-05-06T11:05:43.812Z,2.20
2019-05-06T11:08:13.913Z,2.00
2019-05-06T11:10:45.555Z,2.30
2019-05-06T11:13:15.825Z,3.20
2019-05-06T11:15:45.555Z,3.40
2019-05-06T11:18:15.172Z,1.80
2019-05-06T11:20:45.756Z,2.60
2019-05-06T11:23:15.855Z,2.60
2019-05-06T11:25:46.100Z,2.53
2019-05-06T11:28:35.361Z,2.30
2019-05-06T11:31:23.116Z,2.60
2019-05-06T11:34:05.626Z,1.90
2019-05-06T11:36:42.593Z,1.00
2019-05-06T11:39:14.251Z,1.30
2019-05-06T11:42:05.308Z,1.33
2019-05-06T11:44:17.604Z,1.50
2019-05-06T11:46:47.275Z,1.20
2019-05-06T11:49:16.898Z,1.57
2019-05-06T11:51:46.662Z,1.37
2019-05-06T11:54:20.095Z,2.33
2019-05-06T11:56:52.674Z,1.40
2019-05-06T11:59:22.754Z,1.53
2019-05-06T12:02:04.577Z,1.77
2019-05-06T12:04:34.486Z,1.60
2019-05-06T12:07:11.347Z,1.50
2019-05-06T12:09:37.402Z,1.77
2019-05-06T12:12:07.098Z,1.57
2019-05-06T12:14:36.788Z,1.63
2019-05-06T12:17:06.388Z,1.27
2019-05-06T12:19:35.998Z,2.40
2019-05-06T12:22:05.917Z,1.20
2019-05-06T12:24:35.831Z,1.00
2019-05-06T12:27:05.657Z,1.27
2019-05-06T12:29:38.282Z,1.13
2019-05-06T12:32:22.768Z,1.77
2019-05-06T12:34:52.566Z,1.23
2019-05-06T12:37:24.009Z,1.60
2019-05-06T12:39:56.793Z,1.30
2019-05-06T12:42:29.413Z,1.13
2019-05-06T12:45:23.172Z,1.27
2019-05-06T12:47:58.308Z,1.20
2019-05-06T12:50:28.270Z,1.00
2019-05-06T12:52:58.092Z,1.17
2019-05-06T12:55:28.243Z,1.40
2019-05-06T12:57:58.024Z,1.60
2019-05-06T13:00:29.490Z,1.50
2019-05-06T13:03:02.427Z,1.90
2019-05-06T13:05:32.132Z,1.60
2019-05-06T13:08:05.322Z,1.67
2019-05-06T13:10:33.664Z,2.20
2019-05-06T13:13:06.353Z,1.83
2019-05-06T13:15:36.129Z,2.03
2019-05-06T13:18:07.533Z,1.90
2019-05-06T13:20:37.973Z,1.87
2019-05-06T13:23:35.012Z,2.00
2019-05-06T13:26:02.985Z,1.90
2019-05-06T13:28:37.645Z,1.70
2019-05-06T13:31:17.198Z,2.10
2019-05-06T13:33:54.596Z,1.80
2019-05-06T13:36:24.703Z,2.03
2019-05-06T13:39:09.763Z,2.23
2019-05-06T13:41:25.705Z,2.20
2019-05-06T13:44:08.090Z,2.37
2019-05-06T13:46:44.501Z,2.27
2019-05-06T13:49:39.208Z,2.70
2019-05-06T13:52:13.633Z,2.20
2019-05-06T13:54:43.790Z,1.60
2019-05-06T13:57:13.502Z,2.40
2019-05-06T13:59:44.267Z,2.10
2019-05-06T14:02:43.864Z,2.13
2019-05-06T14:05:14.286Z,1.70
2019-05-06T14:07:45.162Z,2.80
2019-05-06T14:10:15.420Z,3.07
2019-05-06T14:12:45.207Z,2.30
2019-05-06T14:15:16.018Z,2.00
2019-05-06T14:17:46.236Z,1.90
2019-05-06T14:20:16.845Z,1.90
2019-05-06T14:22:46.445Z,2.20
2019-05-06T14:25:52.679Z,1.87
2019-05-06T14:28:43.026Z,2.27
2019-05-06T14:31:25.325Z,1.90
2019-05-06T14:33:52.293Z,2.57
2019-05-06T14:36:22.963Z,1.93
2019-05-06T14:38:53.368Z,2.13
2019-05-06T14:41:26.945Z,1.90
2019-05-06T14:43:56.589Z,2.67
2019-05-06T14:46:27.811Z,2.37
2019-05-06T14:49:04.071Z,1.97
2019-05-06T14:51:32.944Z,2.30
2019-05-06T14:54:03.362Z,2.10
2019-05-06T14:56:39.771Z,1.93
2019-05-06T14:59:09.772Z,2.30
2019-05-06T15:01:45.155Z,1.70
2019-05-06T15:04:12.735Z,1.47
2019-05-06T15:06:42.817Z,1.50
2019-05-06T15:09:13.476Z,2.83
2019-05-06T15:11:43.694Z,2.70
2019-05-06T15:14:13.465Z,2.00
2019-05-06T15:16:43.214Z,2.77
2019-05-06T15:19:13.029Z,2.40
2019-05-06T15:21:43.372Z,2.10
2019-05-06T15:24:14.351Z,2.23
2019-05-06T15:26:44.494Z,2.00
2019-05-06T15:29:14.486Z,1.90
2019-05-06T15:32:16.518Z,1.93
2019-05-06T15:34:56.719Z,1.70
2019-05-06T15:37:33.878Z,1.77
2019-05-06T15:40:07.423Z,1.70
2019-05-06T15:42:37.983Z,2.03
2019-05-06T15:45:07.912Z,1.67
2019-05-06T15:47:38.707Z,1.50
2019-05-06T15:50:12.793Z,1.70
2019-05-06T15:52:43.839Z,1.90
2019-05-06T15:55:15.242Z,2.17
2019-05-06T15:57:47.048Z,2.40
2019-05-06T16:00:19.147Z,1.83
2019-05-06T16:02:49.036Z,2.13
2019-05-06T16:05:26.253Z,2.20
2019-05-06T16:07:53.664Z,1.80
2019-05-06T16:10:25.216Z,2.00
2019-05-06T16:12:55.435Z,1.80
2019-05-06T16:15:36.135Z,2.03
2019-05-06T16:18:06.860Z,1.93
2019-05-06T16:20:36.977Z,2.00
2019-05-06T16:23:13.344Z,1.97
2019-05-06T16:25:53.487Z,2.07
2019-05-06T16:28:23.684Z,2.13
2019-05-06T16:30:57.406Z,3.43
2019-05-06T16:33:28.861Z,2.10
2019-05-06T16:36:00.862Z,1.80
2019-05-06T16:38:32.327Z,2.13
2019-05-06T16:41:12.713Z,1.60
2019-05-06T16:43:38.018Z,1.73
2019-05-06T16:46:07.872Z,2.20
2019-05-06T16:48:39.502Z,2.70
2019-05-06T16:51:09.294Z,2.30
2019-05-06T16:53:40.067Z,2.50
2019-05-06T16:56:36.898Z,3.23
2019-05-06T16:59:08.957Z,3.00
2019-05-06T17:01:42.589Z,2.27
2019-05-06T17:04:26.098Z,2.90
2019-05-06T17:06:56.122Z,2.30
2019-05-06T17:09:27.632Z,1.80
2019-05-06T17:12:05.071Z,1.67
2019-05-06T17:14:34.718Z,2.57
2019-05-06T17:17:05.681Z,2.57
2019-05-06T17:19:35.349Z,2.50
2019-05-06T17:22:06.219Z,2.10
2019-05-06T17:24:36.283Z,2.33
2019-05-06T17:27:06.237Z,2.03
2019-05-06T17:30:07.853Z,2.50
2019-05-06T17:32:42.045Z,2.90
2019-05-06T17:35:12.887Z,2.40
2019-05-06T17:38:06.685Z,2.10
2019-05-06T17:40:39.802Z,3.70
2019-05-06T17:43:10.269Z,1.80
2019-05-06T17:45:58.252Z,1.40
2019-05-06T17:48:37.299Z,2.30
2019-05-06T17:51:33.803Z,4.27
2019-05-06T17:54:05.097Z,2.50
2019-05-06T17:56:36.077Z,2.00
2019-05-06T17:59:06.285Z,1.80
2019-05-06T18:01:42.058Z,2.10
2019-05-06T18:04:14.378Z,1.97
2019-05-06T18:06:44.520Z,3.03
2019-05-06T18:09:15.123Z,2.40
2019-05-06T18:11:57.798Z,2.53
2019-05-06T18:14:16.893Z,2.33
2019-05-06T18:16:46.648Z,2.67
2019-05-06T18:19:18.147Z,2.13
2019-05-06T18:21:49.154Z,2.33
2019-05-06T18:24:19.168Z,2.20
2019-05-06T18:26:49.517Z,2.07
2019-05-06T18:29:22.049Z,2.30
2019-05-06T18:31:53.117Z,2.00
2019-05-06T18:34:23.381Z,2.00
2019-05-06T18:36:53.232Z,1.80
2019-05-06T18:39:29.288Z,1.70
2019-05-06T18:42:13.436Z,2.17
2019-05-06T18:44:38.049Z,2.20
2019-05-06T18:47:08.094Z,2.10
2019-05-06T18:49:38.280Z,2.70
2019-05-06T18:52:08.310Z,1.93
2019-05-06T18:54:38.450Z,2.30
2019-05-06T18:57:08.743Z,2.17
2019-05-06T18:59:39.376Z,2.10
2019-05-06T19:02:09.393Z,2.33
2019-05-06T19:04:52.746Z,3.40
2019-05-06T19:07:23.395Z,2.50
2019-05-06T19:09:58.428Z,2.30
2019-05-06T19:12:39.200Z,3.27
2019-05-06T19:15:03.329Z,2.73
2019-05-06T19:17:33.688Z,2.57
2019-05-06T19:20:03.543Z,1.87
2019-05-06T19:22:34.550Z,1.63
2019-05-06T19:25:05.894Z,2.20
2019-05-06T19:27:36.043Z,2.60
2019-05-06T19:30:07.942Z,1.90
2019-05-06T19:32:38.100Z,2.60
2019-05-06T19:35:08.535Z,3.83
2019-05-06T19:37:39.577Z,2.50
2019-05-06T19:40:09.635Z,2.30
2019-05-06T19:42:47.050Z,2.30
2019-05-06T19:45:12.947Z,2.30
2019-05-06T19:47:43.115Z,2.80
2019-05-06T19:50:13.479Z,2.80
2019-05-06T19:52:43.602Z,2.53
2019-05-06T19:55:14.044Z,2.70
2019-05-06T19:57:44.255Z,2.33
2019-05-06T20:00:15.106Z,2.90
2019-05-06T20:02:59.120Z,2.40
2019-05-06T20:05:54.236Z,2.33
2019-05-06T20:08:32.533Z,1.70
2019-05-06T20:11:27.170Z,2.47
2019-05-06T20:13:57.223Z,2.80
2019-05-06T20:16:27.654Z,2.83
2019-05-06T20:18:58.658Z,2.33
2019-05-06T20:21:28.878Z,3.30
2019-05-06T20:23:58.899Z,2.40
2019-05-06T20:26:28.900Z,3.43
2019-05-06T20:28:58.946Z,3.07
2019-05-06T20:31:28.961Z,2.50
2019-05-06T20:33:58.979Z,3.63
2019-05-06T20:36:28.945Z,3.20
2019-05-06T20:38:58.997Z,3.10
2019-05-06T20:41:28.976Z,3.60
2019-05-06T20:43:59.024Z,3.37
2019-05-06T20:46:32.331Z,2.90
2019-05-06T20:49:03.096Z,3.10
2019-05-06T20:51:33.055Z,3.90
2019-05-06T20:54:03.295Z,3.63
2019-05-06T20:56:32.963Z,3.40
2019-05-06T20:59:02.626Z,3.23
2019-05-06T21:01:32.744Z,3.80
2019-05-06T21:04:02.832Z,3.00
2019-05-06T21:06:32.707Z,2.77
2019-05-06T21:09:02.551Z,2.40
2019-05-06T21:11:33.534Z,2.27
2019-05-06T21:14:06.182Z,1.93
2019-05-06T21:16:36.046Z,2.40
2019-05-06T21:19:07.609Z,2.20
2019-05-06T21:21:39.467Z,2.30
2019-05-06T21:24:09.194Z,1.63
2019-05-06T21:26:48.873Z,2.53
2019-05-06T21:29:18.640Z,1.73
2019-05-06T21:31:48.564Z,1.83
2019-05-06T21:34:40.027Z,2.27
2019-05-06T21:37:12.098Z,1.67
2019-05-06T21:39:42.388Z,1.73
2019-05-06T21:42:12.351Z,2.00
2019-05-06T21:44:43.075Z,2.33
2019-05-06T21:47:12.681Z,2.10
2019-05-06T21:49:43.949Z,2.10
2019-05-06T21:52:15.915Z,2.20
2019-05-06T21:54:46.671Z,2.23
2019-05-06T21:57:16.261Z,1.93
2019-05-06T21:59:49.235Z,1.73
2019-05-06T22:02:22.890Z,2.43
2019-05-06T22:04:57.790Z,1.93
2019-05-06T22:07:27.612Z,2.00
2019-05-06T22:09:57.515Z,1.93
2019-05-06T22:12:29.516Z,2.53
2019-05-06T22:14:59.473Z,2.37
2019-05-06T22:17:29.310Z,2.60
2019-05-06T22:20:07.882Z,2.37
2019-05-06T22:22:37.525Z,3.07
2019-05-06T22:25:08.571Z,2.73
2019-05-06T22:27:38.514Z,2.37
2019-05-06T22:30:09.650Z,2.70
2019-05-06T22:32:46.879Z,2.67
2019-05-06T22:35:17.696Z,2.50
2019-05-06T22:37:47.361Z,2.70
2019-05-06T22:40:17.310Z,2.83
2019-05-06T22:42:47.051Z,3.10
2019-05-06T22:45:18.493Z,2.90
2019-05-06T22:47:48.228Z,2.77
2019-05-06T22:50:18.071Z,3.27
2019-05-06T22:52:47.747Z,3.10
2019-05-06T22:55:17.397Z,2.57
2019-05-06T22:57:47.134Z,3.53
2019-05-06T23:00:22.425Z,2.37
2019-05-06T23:02:56.802Z,3.03
2019-05-06T23:05:26.617Z,3.47
2019-05-06T23:07:57.662Z,3.37
2019-05-06T23:10:30.697Z,3.10
2019-05-06T23:13:00.470Z,2.47
2019-05-06T23:15:42.074Z,3.43
2019-05-06T23:18:11.797Z,3.30
2019-05-06T23:20:43.013Z,4.40
2019-05-06T23:23:14.883Z,3.30
2019-05-06T23:25:46.219Z,3.00
2019-05-06T23:28:15.813Z,3.07
2019-05-06T23:30:45.627Z,2.97
2019-05-06T23:33:15.193Z,3.40
2019-05-06T23:35:44.860Z,3.20
2019-05-06T23:38:52.352Z,2.77
2019-05-06T23:41:57.786Z,4.13
2019-05-06T23:45:03.179Z,2.70
2019-05-06T23:48:08.975Z,3.43
2019-05-06T23:51:14.150Z,3.00
2019-05-06T23:54:22.063Z,3.03
2019-05-06T23:56:52.129Z,2.53
2019-05-06T23:59:22.553Z,3.10
